createdAt,value
2022-09-09T00:00:25.948Z,57.11
2022-09-09T00:03:04.809Z,57.31
2022-09-09T00:05:47.082Z,57.39
2022-09-09T00:08:20.876Z,57.41
2022-09-09T00:10:50.812Z,57.37
2022-09-09T00:13:21.958Z,57.46
2022-09-09T00:16:05.255Z,57.44
2022-09-09T00:19:01.943Z,57.49
2022-09-09T00:21:38.206Z,57.59
2022-09-09T00:24:33.314Z,57.56
2022-09-09T00:27:34.051Z,57.51
2022-09-09T00:30:15.154Z,57.61
2022-09-09T00:32:46.298Z,57.60
2022-09-09T00:35:23.369Z,57.60
2022-09-09T00:37:55.223Z,57.68
2022-09-09T00:40:25.361Z,57.59
2022-09-09T00:43:18.227Z,57.64
2022-09-09T00:46:27.295Z,57.74
2022-09-09T00:49:06.607Z,57.86
2022-09-09T00:52:05.599Z,58.16
2022-09-09T00:54:47.397Z,57.99
2022-09-09T00:57:20.627Z,58.16
2022-09-09T00:59:50.304Z,58.13
2022-09-09T01:02:32.687Z,58.24
2022-09-09T01:05:07.348Z,58.26
2022-09-09T01:07:35.428Z,58.31
2022-09-09T01:10:04.630Z,58.30
2022-09-09T01:12:39.360Z,58.21
2022-09-09T01:15:11.224Z,58.33
2022-09-09T01:18:02.746Z,58.34
2022-09-09T01:20:40.372Z,58.32
2022-09-09T01:23:36.080Z,58.29
2022-09-09T01:26:28.316Z,58.36
2022-09-09T01:28:56.088Z,58.37
2022-09-09T01:31:28.779Z,58.35
2022-09-09T01:33:56.140Z,58.50
2022-09-09T01:36:34.863Z,58.50
2022-09-09T01:39:03.089Z,58.65
2022-09-09T01:41:31.428Z,58.66
2022-09-09T01:43:58.783Z,58.70
2022-09-09T01:46:26.082Z,58.60
2022-09-09T01:48:57.083Z,58.73
2022-09-09T01:51:23.882Z,58.54
2022-09-09T01:53:50.777Z,58.51
2022-09-09T01:56:56.867Z,58.78
2022-09-09T01:59:48.474Z,58.85
2022-09-09T02:02:20.131Z,58.87
2022-09-09T02:04:59.578Z,58.88
2022-09-09T02:07:43.424Z,58.88
2022-09-09T02:10:12.638Z,58.72
2022-09-09T02:12:42.353Z,58.71
2022-09-09T02:15:16.358Z,58.65
2022-09-09T02:17:43.927Z,58.54
2022-09-09T02:20:15.492Z,58.46
2022-09-09T02:22:45.380Z,58.28
2022-09-09T02:25:15.626Z,58.24
2022-09-09T02:27:42.583Z,58.18
2022-09-09T02:30:10.303Z,58.10
2022-09-09T02:32:37.511Z,58.03
2022-09-09T02:35:09.893Z,57.99
2022-09-09T02:37:38.992Z,57.93
2022-09-09T02:40:07.192Z,57.88
2022-09-09T02:42:41.858Z,57.72
2022-09-09T02:45:10.338Z,57.80
2022-09-09T02:47:40.144Z,57.75
2022-09-09T02:50:19.032Z,57.81
2022-09-09T02:53:05.237Z,57.53
2022-09-09T02:55:58.605Z,57.44
2022-09-09T02:58:26.467Z,57.47
2022-09-09T03:00:54.251Z,57.47
2022-09-09T03:03:21.996Z,57.66
2022-09-09T03:05:48.862Z,57.53
2022-09-09T03:08:15.688Z,57.38
2022-09-09T03:10:42.738Z,57.21
2022-09-09T03:13:10.405Z,57.31
2022-09-09T03:15:38.484Z,57.16
2022-09-09T03:18:05.420Z,57.10
2022-09-09T03:20:33.085Z,57.04
2022-09-09T03:23:00.548Z,57.33
2022-09-09T03:25:27.599Z,57.45
2022-09-09T03:27:56.057Z,57.33
2022-09-09T03:30:24.126Z,57.10
2022-09-09T03:32:52.219Z,57.28
2022-09-09T03:35:19.599Z,57.39
2022-09-09T03:37:46.555Z,57.46
2022-09-09T03:40:13.573Z,57.39
2022-09-09T03:42:40.663Z,57.56
2022-09-09T03:45:10.159Z,57.71
2022-09-09T03:47:37.021Z,57.76
2022-09-09T03:50:05.750Z,57.85
2022-09-09T03:52:32.537Z,57.77
2022-09-09T03:54:59.538Z,57.79
2022-09-09T03:57:26.470Z,57.93
2022-09-09T03:59:53.220Z,57.98
2022-09-09T04:02:20.142Z,58.18
2022-09-09T04:04:47.324Z,58.26
2022-09-09T04:07:14.383Z,58.35
2022-09-09T04:09:41.223Z,58.41
2022-09-09T04:12:08.072Z,58.51
2022-09-09T04:14:35.020Z,58.55
2022-09-09T04:17:01.851Z,58.48
2022-09-09T04:19:29.267Z,58.51
2022-09-09T04:21:56.180Z,58.53
2022-09-09T04:24:23.337Z,58.45
2022-09-09T04:26:50.195Z,58.40
2022-09-09T04:29:17.386Z,58.23
2022-09-09T04:31:44.270Z,58.31
2022-09-09T04:34:11.435Z,58.34
2022-09-09T04:36:41.511Z,58.21
2022-09-09T04:39:08.535Z,58.43
2022-09-09T04:41:36.670Z,58.54
2022-09-09T04:44:04.075Z,58.57
2022-09-09T04:46:30.853Z,58.68
2022-09-09T04:48:57.600Z,58.73
2022-09-09T04:51:24.551Z,58.79
2022-09-09T04:53:52.217Z,59.12
2022-09-09T04:56:19.165Z,59.06
2022-09-09T04:58:47.339Z,59.13
2022-09-09T05:01:16.353Z,59.10
2022-09-09T05:03:43.388Z,59.29
2022-09-09T05:06:12.579Z,59.13
2022-09-09T05:08:40.142Z,59.50
2022-09-09T05:11:19.479Z,59.36
2022-09-09T05:13:47.038Z,59.16
2022-09-09T05:16:15.266Z,58.95
2022-09-09T05:18:47.316Z,58.78
2022-09-09T05:21:15.655Z,58.62
2022-09-09T05:23:42.499Z,58.66
2022-09-09T05:26:17.049Z,58.74
2022-09-09T05:28:44.587Z,58.54
2022-09-09T05:31:15.107Z,58.44
2022-09-09T05:33:44.161Z,58.62
2022-09-09T05:36:14.447Z,58.40
2022-09-09T05:38:41.803Z,58.32
2022-09-09T05:41:08.854Z,57.85
2022-09-09T05:43:37.242Z,57.86
2022-09-09T05:46:09.301Z,57.91
2022-09-09T05:48:40.977Z,57.97
2022-09-09T05:51:09.648Z,57.58
2022-09-09T05:53:36.617Z,57.81
2022-09-09T05:56:08.656Z,57.15
2022-09-09T05:58:35.761Z,56.72
2022-09-09T06:01:11.111Z,56.74
2022-09-09T06:03:39.264Z,56.78
2022-09-09T06:06:08.008Z,56.73
2022-09-09T06:08:35.629Z,56.50
2022-09-09T06:11:07.080Z,56.30
2022-09-09T06:13:34.559Z,56.09
2022-09-09T06:16:02.039Z,55.38
2022-09-09T06:18:29.187Z,55.01
2022-09-09T06:20:59.983Z,55.43
2022-09-09T06:23:27.631Z,55.48
2022-09-09T06:26:06.876Z,55.03
2022-09-09T06:28:37.852Z,54.22
2022-09-09T06:31:11.266Z,54.23
2022-09-09T06:33:42.630Z,54.13
2022-09-09T06:36:16.362Z,53.32
2022-09-09T06:38:43.920Z,53.34
2022-09-09T06:41:11.786Z,53.05
2022-09-09T06:43:38.627Z,53.02
2022-09-09T06:46:06.727Z,52.30
2022-09-09T06:48:33.956Z,51.86
2022-09-09T06:51:19.123Z,52.01
2022-09-09T06:53:47.122Z,51.66
2022-09-09T06:56:32.401Z,51.60
2022-09-09T06:59:02.089Z,50.50
2022-09-09T07:01:30.313Z,50.07
2022-09-09T07:03:58.667Z,50.24
2022-09-09T07:06:30.206Z,50.18
2022-09-09T07:08:58.994Z,49.46
2022-09-09T07:11:31.063Z,49.12
2022-09-09T07:13:58.420Z,48.65
2022-09-09T07:16:26.056Z,48.72
2022-09-09T07:18:53.743Z,48.78
2022-09-09T07:21:22.133Z,48.30
2022-09-09T07:23:49.891Z,47.86
2022-09-09T07:26:21.542Z,47.77
2022-09-09T07:28:48.871Z,46.09
2022-09-09T07:31:27.416Z,46.78
2022-09-09T07:33:55.177Z,45.90
2022-09-09T07:36:23.246Z,45.72
2022-09-09T07:38:53.158Z,45.23
2022-09-09T07:41:33.510Z,46.15
2022-09-09T07:44:01.402Z,45.83
2022-09-09T07:46:30.044Z,46.01
2022-09-09T07:48:57.962Z,44.67
2022-09-09T07:51:36.981Z,43.20
2022-09-09T07:54:06.326Z,43.87
2022-09-09T07:56:34.382Z,43.13
2022-09-09T07:59:02.378Z,43.95
2022-09-09T08:01:32.178Z,42.79
2022-09-09T08:04:05.170Z,42.72
2022-09-09T08:06:36.697Z,43.12
2022-09-09T08:09:05.181Z,43.61
2022-09-09T08:11:39.031Z,41.76
2022-09-09T08:14:11.366Z,42.18
2022-09-09T08:16:45.183Z,42.54
2022-09-09T08:19:13.152Z,42.63
2022-09-09T08:21:45.228Z,43.23
2022-09-09T08:24:15.450Z,42.92
2022-09-09T08:26:45.725Z,42.06
2022-09-09T08:29:16.216Z,42.14
2022-09-09T08:31:45.607Z,41.61
2022-09-09T08:34:14.097Z,42.32
2022-09-09T08:36:44.307Z,42.32
2022-09-09T08:39:15.458Z,42.12
2022-09-09T08:42:21.127Z,40.98
2022-09-09T08:45:13.499Z,40.07
2022-09-09T08:47:54.255Z,41.37
2022-09-09T08:50:22.759Z,41.99
2022-09-09T08:53:23.264Z,42.39
2022-09-09T08:56:05.214Z,41.94
2022-09-09T08:58:37.838Z,42.20
2022-09-09T09:01:29.345Z,41.68
2022-09-09T09:04:31.711Z,41.11
2022-09-09T09:07:13.837Z,39.67
2022-09-09T09:10:01.721Z,40.57
2022-09-09T09:12:44.030Z,39.59
2022-09-09T09:15:28.318Z,39.73
2022-09-09T09:17:58.719Z,38.60
2022-09-09T09:21:01.221Z,39.29
2022-09-09T09:23:36.470Z,39.58
2022-09-09T09:26:03.701Z,39.65
2022-09-09T09:28:32.015Z,37.10
2022-09-09T09:31:10.493Z,37.87
2022-09-09T09:33:51.586Z,38.71
2022-09-09T09:36:18.431Z,38.39
2022-09-09T09:41:48.183Z,36.42
2022-09-09T09:44:26.087Z,37.69
2022-09-09T09:46:53.016Z,37.55
2022-09-09T09:49:19.981Z,37.46
2022-09-09T09:51:48.259Z,36.96
2022-09-09T09:54:30.072Z,36.14
2022-09-09T09:56:57.107Z,37.36
2022-09-09T09:59:39.360Z,37.78
2022-09-09T10:02:27.734Z,37.45
2022-09-09T10:05:27.489Z,35.61
2022-09-09T10:08:10.627Z,36.06
2022-09-09T10:10:51.260Z,35.86
2022-09-09T10:13:25.077Z,35.72
2022-09-09T10:16:19.642Z,36.56
2022-09-09T10:18:58.943Z,35.51
2022-09-09T10:21:47.816Z,35.60
2022-09-09T10:24:20.286Z,35.56
2022-09-09T10:27:14.065Z,35.20
2022-09-09T10:30:10.703Z,35.93
2022-09-09T10:32:47.887Z,35.45
2022-09-09T10:35:41.047Z,35.69
2022-09-09T10:38:31.078Z,36.33
2022-09-09T10:40:57.980Z,36.43
2022-09-09T10:43:34.846Z,35.96
2022-09-09T10:46:18.257Z,36.55
2022-09-09T10:48:52.404Z,36.30
2022-09-09T10:51:24.517Z,36.42
2022-09-09T10:54:09.789Z,36.27
2022-09-09T10:56:37.208Z,36.48
2022-09-09T10:59:12.138Z,36.67
2022-09-09T11:02:01.613Z,36.81
2022-09-09T11:04:33.520Z,36.31
2022-09-09T11:07:01.344Z,35.50
2022-09-09T11:09:30.472Z,36.63
2022-09-09T11:11:59.063Z,36.68
2022-09-09T11:14:36.922Z,36.25
2022-09-09T11:17:25.888Z,35.71
2022-09-09T11:19:53.137Z,34.91
2022-09-09T11:22:39.826Z,34.96
2022-09-09T11:25:11.563Z,34.74
2022-09-09T11:27:54.530Z,34.00
2022-09-09T11:33:27.539Z,34.23
2022-09-09T11:36:09.549Z,33.89
2022-09-09T11:38:47.671Z,34.88
2022-09-09T11:41:20.867Z,34.48
2022-09-09T11:43:51.603Z,33.90
2022-09-09T11:46:36.774Z,34.91
2022-09-09T11:49:08.458Z,35.05
2022-09-09T11:51:48.879Z,35.31
2022-09-09T11:54:30.969Z,36.03
2022-09-09T11:56:58.419Z,35.99
2022-09-09T11:59:34.886Z,36.06
2022-09-09T12:02:33.019Z,36.59
2022-09-09T12:05:16.937Z,36.18
2022-09-09T12:07:59.432Z,36.22
2022-09-09T12:10:39.880Z,36.75
2022-09-09T12:13:16.554Z,36.95
2022-09-09T12:15:51.797Z,37.21
2022-09-09T12:18:42.516Z,37.21
2022-09-09T12:21:19.704Z,37.22
2022-09-09T12:24:00.246Z,36.91
2022-09-09T12:26:37.932Z,37.30
2022-09-09T12:29:34.818Z,37.15
2022-09-09T12:32:07.883Z,36.97
2022-09-09T12:35:04.318Z,36.65
2022-09-09T12:37:39.167Z,36.55
2022-09-09T12:40:20.228Z,36.87
2022-09-09T12:42:48.098Z,37.13
2022-09-09T12:45:18.444Z,37.70
2022-09-09T12:48:00.840Z,37.93
2022-09-09T12:50:33.974Z,38.04
2022-09-09T12:53:05.791Z,38.33
2022-09-09T12:55:35.748Z,38.32
2022-09-09T12:58:06.167Z,38.50
2022-09-09T13:00:35.034Z,38.43
2022-09-09T13:03:04.947Z,38.57
2022-09-09T13:05:37.936Z,38.40
2022-09-09T13:08:08.894Z,38.56
2022-09-09T13:10:52.841Z,38.69
2022-09-09T13:13:27.930Z,38.79
2022-09-09T13:16:04.484Z,38.76
2022-09-09T13:18:43.395Z,38.93
2022-09-09T13:21:11.454Z,39.20
2022-09-09T13:23:39.154Z,39.18
2022-09-09T13:26:09.194Z,39.20
2022-09-09T13:28:36.807Z,39.34
2022-09-09T13:31:06.109Z,39.04
2022-09-09T13:33:38.429Z,39.08
2022-09-09T13:36:10.046Z,38.87
2022-09-09T13:38:54.403Z,38.72
2022-09-09T13:41:34.359Z,38.75
2022-09-09T13:44:01.822Z,38.79
2022-09-09T13:46:34.809Z,38.76
2022-09-09T13:49:02.884Z,38.56
2022-09-09T13:51:40.789Z,38.87
2022-09-09T13:54:08.557Z,39.01
2022-09-09T13:56:36.427Z,39.28
2022-09-09T13:59:04.505Z,39.66
2022-09-09T14:01:32.544Z,39.65
2022-09-09T14:04:00.140Z,39.69
2022-09-09T14:06:27.605Z,39.64
2022-09-09T14:08:55.985Z,40.18
2022-09-09T14:11:23.342Z,40.62
2022-09-09T14:13:53.056Z,40.53
2022-09-09T14:16:20.071Z,40.65
2022-09-09T14:18:47.572Z,40.91
2022-09-09T14:21:14.412Z,40.98
2022-09-09T14:23:41.788Z,41.06
2022-09-09T14:26:09.546Z,40.97
2022-09-09T14:28:54.384Z,40.96
2022-09-09T14:31:23.012Z,40.85
2022-09-09T14:33:49.853Z,41.03
2022-09-09T14:36:16.905Z,40.88
2022-09-09T14:38:44.367Z,40.87
2022-09-09T14:41:17.986Z,41.09
2022-09-09T14:43:46.044Z,41.39
2022-09-09T14:46:15.143Z,41.53
2022-09-09T14:48:42.459Z,41.52
2022-09-09T14:51:11.011Z,41.47
2022-09-09T14:53:38.881Z,41.58
2022-09-09T14:56:07.728Z,41.49
2022-09-09T14:58:36.005Z,41.17
2022-09-09T15:01:13.337Z,41.18
2022-09-09T15:03:42.184Z,41.02
2022-09-09T15:06:11.099Z,40.89
2022-09-09T15:08:42.285Z,40.65
2022-09-09T15:11:14.187Z,40.54
2022-09-09T15:13:42.378Z,40.16
2022-09-09T15:16:11.706Z,40.17
2022-09-09T15:18:43.992Z,40.22
2022-09-09T15:21:15.635Z,40.47
2022-09-09T15:23:42.654Z,40.45
2022-09-09T15:26:10.319Z,40.30
2022-09-09T15:28:38.799Z,40.48
2022-09-09T15:31:18.706Z,40.63
2022-09-09T15:34:14.802Z,41.01
2022-09-09T15:36:45.402Z,41.30
2022-09-09T15:39:14.033Z,41.51
2022-09-09T15:41:40.933Z,41.60
2022-09-09T15:44:08.053Z,41.91
2022-09-09T15:46:39.610Z,41.96
2022-09-09T15:49:07.911Z,41.87
2022-09-09T15:51:43.603Z,41.95
2022-09-09T15:54:14.384Z,42.27
2022-09-09T15:56:42.162Z,42.58
2022-09-09T15:59:09.515Z,42.73
2022-09-09T16:01:37.527Z,42.80
2022-09-09T16:04:05.152Z,43.34
2022-09-09T16:06:32.102Z,44.28
2022-09-09T16:08:59.456Z,44.30
2022-09-09T16:11:28.248Z,44.84
2022-09-09T16:13:55.809Z,44.89
2022-09-09T16:16:27.980Z,44.90
2022-09-09T16:18:56.462Z,45.20
2022-09-09T16:21:30.332Z,44.86
2022-09-09T16:23:58.243Z,44.83
2022-09-09T16:26:25.391Z,45.16
2022-09-09T16:28:52.338Z,45.03
2022-09-09T16:31:21.405Z,44.92
2022-09-09T16:33:48.890Z,44.65
2022-09-09T16:36:20.546Z,44.62
2022-09-09T16:38:47.388Z,44.65
2022-09-09T16:41:15.177Z,44.83
2022-09-09T16:43:42.403Z,45.30
2022-09-09T16:46:19.811Z,45.19
2022-09-09T16:48:47.758Z,45.20
2022-09-09T16:51:17.060Z,45.38
2022-09-09T16:53:44.411Z,45.23
2022-09-09T16:56:18.632Z,45.62
2022-09-09T16:58:49.670Z,46.16
2022-09-09T17:01:16.664Z,46.32
2022-09-09T17:03:43.767Z,46.09
2022-09-09T17:06:14.610Z,46.03
2022-09-09T17:08:44.888Z,46.41
2022-09-09T17:11:15.560Z,46.56
2022-09-09T17:13:46.339Z,46.67
2022-09-09T17:16:15.426Z,46.78
2022-09-09T17:18:43.460Z,47.03
2022-09-09T17:21:15.063Z,47.23
2022-09-09T17:23:42.268Z,47.26
2022-09-09T17:26:11.369Z,46.93
2022-09-09T17:28:39.564Z,47.65
2022-09-09T17:31:11.444Z,47.75
2022-09-09T17:33:40.050Z,48.32
2022-09-09T17:36:12.331Z,48.18
2022-09-09T17:38:39.420Z,48.50
2022-09-09T17:41:07.980Z,48.74
2022-09-09T17:43:34.932Z,48.19
2022-09-09T17:46:15.160Z,48.66
2022-09-09T17:48:43.081Z,48.81
2022-09-09T17:51:12.273Z,48.35
2022-09-09T17:53:43.474Z,48.29
2022-09-09T17:56:11.606Z,48.68
2022-09-09T17:58:38.777Z,48.81
2022-09-09T18:01:10.349Z,48.57
2022-09-09T18:03:38.382Z,48.87
2022-09-09T18:06:05.958Z,48.80
2022-09-09T18:08:36.697Z,49.16
2022-09-09T18:11:04.366Z,49.76
2022-09-09T18:13:31.211Z,49.45
2022-09-09T18:15:58.858Z,49.68
2022-09-09T18:18:26.438Z,49.53
2022-09-09T18:21:01.875Z,50.20
2022-09-09T18:23:30.168Z,50.20
2022-09-09T18:25:59.162Z,50.11
2022-09-09T18:28:28.981Z,49.76
2022-09-09T18:30:56.015Z,49.29
2022-09-09T18:33:23.084Z,49.38
2022-09-09T18:35:50.036Z,49.54
2022-09-09T18:38:17.705Z,49.40
2022-09-09T18:40:44.587Z,49.57
2022-09-09T18:43:12.952Z,49.60
2022-09-09T18:45:39.783Z,50.45
2022-09-09T18:48:06.730Z,50.80
2022-09-09T18:50:34.371Z,50.50
2022-09-09T18:53:01.346Z,50.59
2022-09-09T18:55:29.322Z,50.46
2022-09-09T18:57:58.931Z,50.97
2022-09-09T19:00:26.593Z,50.82
2022-09-09T19:02:53.441Z,51.34
2022-09-09T19:05:22.917Z,51.43
2022-09-09T19:07:51.129Z,52.14
2022-09-09T19:10:18.100Z,51.97
2022-09-09T19:12:45.232Z,51.85
2022-09-09T19:15:12.279Z,52.49
2022-09-09T19:17:39.538Z,52.85
2022-09-09T19:20:09.201Z,52.80
2022-09-09T19:22:36.298Z,52.35
2022-09-09T19:25:04.165Z,52.26
2022-09-09T19:27:31.122Z,53.05
2022-09-09T19:29:58.365Z,52.77
2022-09-09T19:35:12.224Z,53.40
2022-09-09T19:37:38.967Z,53.35
2022-09-09T19:40:08.466Z,53.56
2022-09-09T19:42:35.425Z,53.23
2022-09-09T19:45:02.478Z,53.48
2022-09-09T19:47:29.529Z,53.26
2022-09-09T19:49:56.430Z,52.98
2022-09-09T19:52:23.327Z,53.26
2022-09-09T19:54:50.269Z,52.88
2022-09-09T19:57:17.122Z,54.28
2022-09-09T19:59:44.192Z,53.81
2022-09-09T20:02:13.507Z,53.13
2022-09-09T20:04:40.427Z,53.08
2022-09-09T20:07:07.880Z,53.06
2022-09-09T20:09:34.868Z,52.88
2022-09-09T20:12:01.968Z,52.92
2022-09-09T20:14:29.139Z,53.02
2022-09-09T20:16:56.601Z,53.04
2022-09-09T20:19:23.657Z,53.14
2022-09-09T20:21:52.258Z,53.84
2022-09-09T20:24:20.423Z,53.39
2022-09-09T20:26:48.407Z,53.46
2022-09-09T20:29:17.739Z,53.48
2022-09-09T20:31:45.369Z,53.37
2022-09-09T20:34:14.725Z,53.97
2022-09-09T20:36:42.031Z,53.99
2022-09-09T20:39:10.935Z,54.56
2022-09-09T20:41:38.798Z,54.37
2022-09-09T20:44:19.509Z,54.56
2022-09-09T20:46:48.321Z,53.83
2022-09-09T20:49:19.409Z,54.03
2022-09-09T20:51:47.278Z,53.99
2022-09-09T20:54:16.168Z,53.65
2022-09-09T20:56:43.508Z,53.82
2022-09-09T20:59:15.411Z,53.92
2022-09-09T21:01:42.420Z,53.41
2022-09-09T21:04:09.897Z,53.69
2022-09-09T21:06:37.362Z,53.55
2022-09-09T21:09:04.819Z,53.26
2022-09-09T21:11:32.760Z,53.83
2022-09-09T21:13:59.846Z,53.57
2022-09-09T21:16:28.016Z,53.46
2022-09-09T21:18:54.859Z,53.44
2022-09-09T21:21:21.707Z,53.73
2022-09-09T21:23:49.471Z,53.23
2022-09-09T21:26:18.378Z,53.18
2022-09-09T21:28:45.617Z,53.24
2022-09-09T21:31:16.362Z,53.29
2022-09-09T21:33:43.508Z,53.39
2022-09-09T21:36:11.234Z,52.97
2022-09-09T21:38:40.269Z,53.08
2022-09-09T21:41:09.064Z,53.39
2022-09-09T21:43:35.901Z,53.65
2022-09-09T21:46:13.638Z,53.42
2022-09-09T21:48:40.551Z,53.30
2022-09-09T21:51:09.597Z,53.31
2022-09-09T21:53:36.698Z,53.47
2022-09-09T21:56:09.855Z,53.46
2022-09-09T21:58:36.785Z,53.43
2022-09-09T22:01:14.898Z,53.51
2022-09-09T22:03:42.857Z,53.72
2022-09-09T22:06:11.673Z,53.57
2022-09-09T22:08:38.669Z,53.41
2022-09-09T22:11:10.801Z,53.63
2022-09-09T22:13:38.530Z,53.51
2022-09-09T22:16:09.532Z,53.51
2022-09-09T22:18:37.013Z,53.46
2022-09-09T22:21:11.830Z,53.47
2022-09-09T22:23:38.780Z,53.49
2022-09-09T22:26:06.035Z,53.57
2022-09-09T22:28:33.999Z,53.34
2022-09-09T22:31:01.214Z,53.28
2022-09-09T22:33:28.203Z,53.14
2022-09-09T22:35:55.051Z,53.49
2022-09-09T22:38:22.526Z,53.56
2022-09-09T22:40:49.769Z,53.62
2022-09-09T22:43:18.350Z,53.69
2022-09-09T22:45:45.919Z,53.84
2022-09-09T22:48:13.405Z,53.75
2022-09-09T22:50:42.531Z,53.74
2022-09-09T22:53:10.883Z,53.78
2022-09-09T22:55:37.704Z,53.83
2022-09-09T22:58:04.549Z,53.75
2022-09-09T23:00:31.495Z,53.77
2022-09-09T23:02:58.443Z,53.97
2022-09-09T23:05:27.699Z,53.91
2022-09-09T23:07:58.652Z,53.93
2022-09-09T23:10:25.815Z,53.97
2022-09-09T23:12:52.593Z,54.00
2022-09-09T23:15:19.979Z,54.12
2022-09-09T23:17:46.793Z,54.06
2022-09-09T23:20:13.769Z,54.16
2022-09-09T23:22:40.663Z,54.18
2022-09-09T23:25:07.938Z,54.38
2022-09-09T23:27:35.785Z,54.33
2022-09-09T23:30:02.770Z,54.29
2022-09-09T23:32:29.513Z,54.33
2022-09-09T23:34:56.665Z,54.36
2022-09-09T23:37:23.511Z,54.47
2022-09-09T23:39:50.387Z,54.49
2022-09-09T23:42:17.204Z,54.48
2022-09-09T23:44:44.053Z,54.52
2022-09-09T23:47:10.799Z,54.63
2022-09-09T23:49:40.518Z,54.57
2022-09-09T23:52:07.360Z,54.74
2022-09-09T23:54:34.723Z,54.69
2022-09-09T23:57:03.289Z,54.95
2022-09-09T23:59:31.281Z,54.96
